Aérodrome :
LOGIN :

S'inscrire | Disclaimer

   EN    FR    IT 

 










Légende :    VFR   VFR Marginal   IFR   IFR Intensif   IFR Très Intensif
Visi : 
Plafond : 
>= 8 km
>= 3000ft
5 à 8 km
1000 à 3000 ft
1500m à 5 km
500 à 1000 ft
800 à 1500m
200 à 500 ft
< 800m
< 200 ft
Symboles :   Orages  Brouillard  Fortes neiges  Fortes précipitations  Vent > 20 kt
SIGMETs :   Divers  Orages  Givrage  Turbulence  Onde Orograph.  Cendres Volcan.






- Altitude de l'aérodrome : 158 ft
- Code IATA : QAR


EHDL - Deelen Airbase

DERNIER METAR :
  • 071225Z AUTO 28009KT 220V360 9999 SCT057 BKN063 OVC068 18/10 Q1019 BLU

METARs EXPIRÉS :
  • 071155Z AUTO 26010KT 200V340 9999 BKN039 BKN045 BKN056 18/10 Q1019 BLU
  • 071125Z AUTO 27011KT 200V310 9999 SCT039 SCT053 OVC170 18/11 Q1019 BLU
  • 071055Z AUTO 26011KT 190V300 9999 FEW036 SCT042 BKN047 18/11 Q1019 BLU
  • 071025Z AUTO VRB02KT 9999 FEW015CB OVC140 17/14 Q1019 BLU
  • 070955Z AUTO 24008KT 210V320 7000 SHRA FEW015CB SCT042 BKN046 14/13 Q1019 REDZ WHT

TAF TAF EHDL
Valide du 07 à 09h jusqu'au 07 à 21h UTC


070839Z 0709/0721 18008KT 9999 FEW040 BKN080
BECMG 0709/0712 28012G22KT
PROB30
TEMPO 0710/0712 SCT025CB BKN050
BECMG 0716/0719 VRB02KT



MET'MAP, la Météo Aéronautique d'un coup d'oeil ! - Copyright ORBIFLY Décembre 2007 - Disclaimer

ORBIFLY MET'MAP TEAM :

Programmation & Développement : Alexandra Zaïnal
Sur une idée originale de : Baudouin d'Aumeries
Assistance à la programmation : Marc-Olivier Méhu
Soutien technique & logistique : Manuel Goepfert

Contact : metmap@orbifly.com




SOURCES & CREDITS :

   NOAA